Time;durP1;ratioP1;P1;durP2;ratioP2;P2;SDS_P1;SDS_P2;PMS_P1;PMS_P2;Temp;Humidity;BMP_temperature;BMP_pressure;BME280_temperature;BME280_humidity;BME280_pressure;Samples;Min_cycle;Max_cycle;Signal;HPM_P1;HPM_P2
2022/06/05 00:00:10;;;;;;;13.02;9.77;;;;;;;16.49;84.39;96153.75;2024685;29;20055;-63
2022/06/05 00:01:58;;;;;;;11.77;9.63;;;;;;;16.46;84.28;96149.56;2020331;29;20659;-63
2022/06/05 00:03:24;;;;;;;11.88;9.82;;;;;;;16.43;85.04;96149.78;2013180;29;20053;-62
2022/06/05 00:04:57;;;;;;;11.93;9.75;;;;;;;16.40;84.81;96146.53;2004700;29;20038;-62
2022/06/05 00:06:29;;;;;;;11.45;9.25;;;;;;;16.39;85.05;96148.31;2011028;29;20041;-64
2022/06/05 00:08:28;;;;;;;14.90;10.00;;;;;;;16.40;84.98;96157.00;2009949;29;20470;-63
2022/06/05 00:09:55;;;;;;;11.18;9.45;;;;;;;16.40;84.55;96154.41;2017364;29;20044;-62
2022/06/05 00:11:14;;;;;;;11.98;10.32;;;;;;;16.37;85.01;96149.38;2009799;29;20540;-63
2022/06/05 00:12:44;;;;;;;11.05;9.88;;;;;;;16.36;84.94;96153.78;2014561;29;20544;-62
2022/06/05 00:14:04;;;;;;;13.40;9.88;;;;;;;16.32;84.53;96147.06;2009937;29;20045;-62
2022/06/05 00:15:23;;;;;;;14.32;9.93;;;;;;;16.31;84.96;96155.88;2004734;29;20057;-62
2022/06/05 00:16:43;;;;;;;12.63;10.48;;;;;;;16.28;85.03;96150.84;2004853;29;20073;-62
2022/06/05 00:18:02;;;;;;;12.50;10.40;;;;;;;16.26;85.04;96147.47;2006668;29;20045;-62
2022/06/05 00:19:22;;;;;;;15.65;10.77;;;;;;;16.25;85.77;96143.16;2004554;29;20045;-64
2022/06/05 00:20:42;;;;;;;13.93;9.73;;;;;;;16.27;85.42;96151.75;2001831;29;20049;-62
2022/06/05 00:22:03;;;;;;;11.73;10.18;;;;;;;16.28;85.16;96143.81;2001926;29;20058;-62
2022/06/05 00:23:22;;;;;;;12.35;10.50;;;;;;;16.28;85.36;96149.06;2002003;29;20050;-62
2022/06/05 00:24:42;;;;;;;12.23;10.55;;;;;;;16.27;85.96;96147.34;2002004;29;20449;-62
2022/06/05 00:26:22;;;;;;;12.90;10.60;;;;;;;16.25;85.63;96145.78;2002015;29;20045;-62
2022/06/05 00:27:48;;;;;;;12.95;11.27;;;;;;;16.21;86.00;96139.91;2011849;29;20041;-66
2022/06/05 00:29:16;;;;;;;12.18;10.48;;;;;;;16.17;85.94;96137.59;2004580;29;20045;-63
2022/06/05 00:31:02;;;;;;;13.25;10.90;;;;;;;16.16;85.58;96138.53;2002197;29;20140;-65
2022/06/05 00:32:31;;;;;;;14.32;10.52;;;;;;;16.14;85.77;96133.41;1996944;29;20061;-65
2022/06/05 00:33:51;;;;;;;13.13;11.70;;;;;;;16.13;85.53;96136.13;2006121;29;20049;-62
2022/06/05 00:35:15;;;;;;;14.73;11.23;;;;;;;16.14;86.13;96143.88;2012114;29;20049;-62
2022/06/05 00:36:47;;;;;;;14.18;11.52;;;;;;;16.09;86.73;96135.47;2002106;29;20450;-63
2022/06/05 00:38:14;;;;;;;12.63;11.32;;;;;;;16.07;86.70;96140.00;2003435;29;20050;-62
2022/06/05 00:39:41;;;;;;;17.95;11.70;;;;;;;16.05;86.30;96137.47;2000164;29;20173;-63
2022/06/05 00:41:04;;;;;;;14.98;12.43;;;;;;;16.02;87.16;96135.06;2010257;29;20038;-62
2022/06/05 00:42:24;;;;;;;14.18;11.55;;;;;;;16.02;86.84;96135.06;2010576;29;20053;-62
2022/06/05 00:43:44;;;;;;;15.77;12.13;;;;;;;16.01;86.72;96133.41;2002119;29;20541;-63
2022/06/05 00:45:07;;;;;;;15.23;12.30;;;;;;;16.03;87.20;96139.34;1999080;29;20041;-62
2022/06/05 00:46:27;;;;;;;14.77;11.27;;;;;;;16.02;87.36;96129.84;2002294;29;20050;-63
2022/06/05 00:47:46;;;;;;;14.75;12.52;;;;;;;16.04;86.74;96132.38;2007533;29;20528;-64
2022/06/05 00:49:06;;;;;;;13.73;11.93;;;;;;;16.03;86.51;96130.66;1998972;29;20046;-59
2022/06/05 00:50:28;;;;;;;15.27;13.05;;;;;;;16.03;87.30;96131.50;1991429;29;20514;-62
2022/06/05 00:51:48;;;;;;;15.45;12.68;;;;;;;16.02;87.44;96132.44;2009541;29;20048;-62
2022/06/05 00:53:08;;;;;;;15.35;12.38;;;;;;;16.03;86.80;96135.91;2009449;29;20050;-61
2022/06/05 00:54:28;;;;;;;13.75;12.30;;;;;;;16.00;87.61;96138.72;2009029;29;20042;-62
2022/06/05 00:55:51;;;;;;;15.73;14.00;;;;;;;15.95;87.62;96141.66;2006683;29;20057;-62
2022/06/05 00:57:11;;;;;;;15.93;12.85;;;;;;;15.94;87.19;96131.28;2009581;29;20053;-60
2022/06/05 00:58:31;;;;;;;14.38;12.85;;;;;;;15.91;87.45;96132.34;2009070;29;20473;-61
2022/06/05 00:59:50;;;;;;;13.73;12.13;;;;;;;15.90;87.53;96130.63;2008810;29;20485;-61
2022/06/05 01:01:10;;;;;;;14.80;13.30;;;;;;;15.87;87.90;96125.59;2016872;29;20049;-61
2022/06/05 01:02:29;;;;;;;15.80;12.68;;;;;;;15.87;87.79;96120.38;2012093;29;20045;-62
2022/06/05 01:03:49;;;;;;;17.35;13.18;;;;;;;15.86;87.37;96123.94;2006678;29;20052;-64
2022/06/05 01:05:10;;;;;;;15.55;13.85;;;;;;;15.85;88.24;96117.00;2011758;29;20057;-63
2022/06/05 01:06:30;;;;;;;15.00;13.30;;;;;;;15.83;87.71;96116.28;2014743;29;20041;-63
2022/06/05 01:07:49;;;;;;;14.32;12.82;;;;;;;15.81;87.45;96112.94;2004341;29;20050;-65
2022/06/05 01:09:09;;;;;;;14.68;13.18;;;;;;;15.78;87.63;96110.50;2013863;29;20045;-65
2022/06/05 01:10:55;;;;;;;15.57;12.52;;;;;;;15.77;87.61;96101.81;2017280;29;20056;-61
2022/06/05 01:12:36;;;;;;;16.35;12.77;;;;;;;15.74;87.61;96103.78;2017319;29;20045;-61
2022/06/05 01:14:02;;;;;;;16.38;12.00;;;;;;;15.70;88.33;96100.53;2009380;29;20041;-65
2022/06/05 01:15:29;;;;;;;16.25;12.45;;;;;;;15.71;88.02;96101.38;2009227;29;20049;-63
2022/06/05 01:17:08;;;;;;;13.63;12.07;;;;;;;15.72;88.32;96100.47;2009535;29;20053;-60
2022/06/05 01:18:51;;;;;;;14.35;12.35;;;;;;;15.71;88.65;96102.22;2011466;29;20049;-62
2022/06/05 01:20:25;;;;;;;16.15;14.10;;;;;;;15.70;88.51;96099.72;2009050;29;20049;-63
2022/06/05 01:21:57;;;;;;;16.33;12.65;;;;;;;15.68;88.87;96091.09;2004358;29;20054;-63
2022/06/05 01:23:39;;;;;;;15.45;13.82;;;;;;;15.70;88.53;96094.47;2002788;29;20045;-63
2022/06/05 01:25:12;;;;;;;15.65;14.02;;;;;;;15.65;88.49;96095.56;2019480;29;20545;-62
2022/06/05 01:26:47;;;;;;;17.40;12.07;;;;;;;15.65;88.70;96092.94;2009423;29;20045;-61
2022/06/05 01:28:10;;;;;;;21.13;13.52;;;;;;;15.64;88.54;96088.66;2018203;29;20041;-65
2022/06/05 01:29:48;;;;;;;15.00;13.38;;;;;;;15.64;88.61;96087.84;2001853;29;20041;-57
2022/06/05 01:31:10;;;;;;;17.73;14.13;;;;;;;15.64;88.73;96095.69;2008259;29;20054;-62
2022/06/05 01:32:37;;;;;;;15.60;14.00;;;;;;;15.63;88.68;96094.81;2006850;29;20053;-61
2022/06/05 01:34:24;;;;;;;16.23;13.85;;;;;;;15.61;88.41;96096.72;2004268;29;20444;-63
2022/06/05 01:36:09;;;;;;;17.48;13.82;;;;;;;15.60;88.71;96108.13;2011771;29;20053;-64
2022/06/05 01:37:36;;;;;;;15.70;13.75;;;;;;;15.55;88.68;96099.72;2009420;29;20041;-64
2022/06/05 01:39:01;;;;;;;15.90;14.02;;;;;;;15.53;88.72;96098.16;2007264;29;20045;-62
2022/06/05 01:40:26;;;;;;;16.73;14.35;;;;;;;15.51;88.71;96098.25;2009801;29;20049;-61
2022/06/05 01:41:48;;;;;;;16.55;13.70;;;;;;;15.52;89.04;96097.31;2002937;29;20046;-61
2022/06/05 01:43:11;;;;;;;15.70;13.73;;;;;;;15.49;89.37;96091.44;2001522;29;20046;-62
2022/06/05 01:44:34;;;;;;;16.90;13.82;;;;;;;15.51;89.44;96092.19;2004218;29;20046;-61
2022/06/05 01:45:59;;;;;;;15.55;13.13;;;;;;;15.49;88.74;96094.91;1996499;29;20050;-60
2022/06/05 01:47:21;;;;;;;14.65;13.15;;;;;;;15.50;89.09;96090.50;2006734;29;20053;-61
2022/06/05 01:48:44;;;;;;;15.35;13.65;;;;;;;15.51;88.70;96089.59;1996359;29;20050;-60
2022/06/05 01:50:10;;;;;;;19.58;13.55;;;;;;;15.50;89.04;96088.72;2004530;29;20041;-61
2022/06/05 01:51:33;;;;;;;16.52;13.68;;;;;;;15.49;89.00;96092.28;2009519;29;20509;-62
2022/06/05 01:52:56;;;;;;;16.73;14.20;;;;;;;15.44;89.34;96081.28;1995867;29;20046;-60
2022/06/05 01:54:20;;;;;;;16.48;14.65;;;;;;;15.42;89.00;96083.16;2004881;29;20042;-62
2022/06/05 01:55:47;;;;;;;15.98;14.32;;;;;;;15.40;89.26;96083.25;2001445;29;20054;-62
2022/06/05 01:57:08;;;;;;;16.20;14.57;;;;;;;15.39;89.25;96072.88;2002341;29;20053;-59
2022/06/05 01:58:36;;;;;;;16.50;14.80;;;;;;;15.35;89.29;96067.03;2001996;29;20045;-61
2022/06/05 02:00:00;;;;;;;15.73;14.02;;;;;;;15.33;89.38;96066.28;2001584;29;20042;-64
2022/06/05 02:01:23;;;;;;;16.77;14.98;;;;;;;15.32;89.78;96066.38;1993346;29;20039;-62
2022/06/05 02:03:02;;;;;;;16.52;14.77;;;;;;;15.33;89.51;96068.88;2001251;29;20071;-61
2022/06/05 02:04:32;;;;;;;18.85;14.95;;;;;;;15.32;89.42;96062.00;2001811;29;20049;-61
2022/06/05 02:05:55;;;;;;;17.73;14.98;;;;;;;15.27;89.95;96052.78;2001436;29;20049;-63
2022/06/05 02:07:20;;;;;;;18.20;15.38;;;;;;;15.30;90.04;96060.41;2001634;29;20517;-62
2022/06/05 02:08:43;;;;;;;17.45;14.60;;;;;;;15.29;89.40;96056.97;1994220;29;20054;-60
2022/06/05 02:10:36;;;;;;;17.00;15.18;;;;;;;15.30;89.92;96063.03;2001734;29;20049;-62
2022/06/05 02:11:55;;;;;;;18.33;15.23;;;;;;;15.28;89.65;96055.25;2003249;29;20042;-61
2022/06/05 02:13:15;;;;;;;19.73;15.27;;;;;;;15.27;89.67;96055.38;2003147;29;20042;-63
2022/06/05 02:14:35;;;;;;;18.95;15.55;;;;;;;15.26;89.87;96056.31;2005678;29;20049;-63
2022/06/05 02:15:55;;;;;;;17.90;14.57;;;;;;;15.21;89.89;96054.84;2003048;29;20414;-62
2022/06/05 02:17:15;;;;;;;17.90;15.45;;;;;;;15.16;90.18;96048.22;1998074;29;20042;-61
2022/06/05 02:18:35;;;;;;;20.30;15.20;;;;;;;15.15;90.00;96055.22;1994964;29;20433;-62
2022/06/05 02:19:54;;;;;;;20.90;16.42;;;;;;;15.13;90.10;96048.41;2005024;29;20053;-60
2022/06/05 02:21:14;;;;;;;17.52;14.85;;;;;;;15.13;90.22;96040.56;1995329;29;20050;-65
2022/06/05 02:22:37;;;;;;;18.83;16.02;;;;;;;15.15;90.64;96052.59;2005145;29;20050;-64
2022/06/05 02:23:56;;;;;;;19.52;16.48;;;;;;;15.19;90.18;96043.63;2003030;29;20045;-64
2022/06/05 02:25:18;;;;;;;17.55;15.25;;;;;;;15.21;90.78;96038.31;2008063;29;20041;-62
2022/06/05 02:26:38;;;;;;;18.52;16.55;;;;;;;15.21;90.88;96033.91;2005282;29;20639;-61
2022/06/05 02:27:59;;;;;;;20.15;15.98;;;;;;;15.25;90.79;96026.69;2003057;29;20042;-60
2022/06/05 02:29:20;;;;;;;18.77;15.88;;;;;;;15.26;90.05;96028.34;1998123;29;20046;-62
2022/06/05 02:30:46;;;;;;;18.95;15.85;;;;;;;15.24;90.27;96021.59;2002756;29;20045;-61
2022/06/05 02:32:31;;;;;;;19.25;16.25;;;;;;;15.23;90.50;96025.94;2005511;29;20071;-61
2022/06/05 02:34:10;;;;;;;19.50;16.10;;;;;;;15.24;90.29;96018.97;2010605;29;20458;-61
2022/06/05 02:35:52;;;;;;;19.35;16.05;;;;;;;15.24;90.05;96018.97;2013169;29;20053;-62
2022/06/05 02:37:19;;;;;;;19.30;16.00;;;;;;;15.21;90.50;96018.22;2005218;29;20457;-64
2022/06/05 02:39:11;;;;;;;19.95;16.65;;;;;;;15.24;89.92;96017.19;2010372;29;20069;-61
2022/06/05 02:41:10;;;;;;;18.20;16.23;;;;;;;15.19;90.65;96012.25;2005517;29;20533;-59
2022/06/05 02:42:55;;;;;;;18.52;15.93;;;;;;;15.18;90.36;96005.34;2005427;29;20057;-62
2022/06/05 02:44:29;;;;;;;21.27;16.38;;;;;;;15.16;90.36;95998.53;2010549;29;20042;-61
2022/06/05 02:45:55;;;;;;;20.50;15.73;;;;;;;15.13;90.35;95999.56;2010617;29;20533;-60
2022/06/05 02:47:49;;;;;;;19.98;15.98;;;;;;;15.13;90.37;95994.34;2005037;29;20050;-63
2022/06/05 02:49:16;;;;;;;19.25;17.20;;;;;;;15.13;90.89;95981.25;2005364;29;20065;-61
2022/06/05 02:50:43;;;;;;;21.52;17.10;;;;;;;15.13;90.43;95964.72;2003494;29;20042;-61
2022/06/05 02:52:04;;;;;;;19.50;17.13;;;;;;;15.10;90.86;95962.28;2003190;29;20046;-63
2022/06/05 02:53:25;;;;;;;20.30;17.23;;;;;;;15.08;90.96;95964.19;1985500;29;20054;-62
2022/06/05 02:54:51;;;;;;;19.90;17.50;;;;;;;15.06;90.47;95964.28;1997536;29;20515;-63
2022/06/05 02:56:11;;;;;;;22.23;17.35;;;;;;;15.06;90.96;95963.44;2002460;29;20050;-63
2022/06/05 02:57:31;;;;;;;19.02;17.02;;;;;;;15.02;91.08;95960.19;2002667;29;20406;-65
2022/06/05 02:58:51;;;;;;;18.15;16.23;;;;;;;15.07;91.25;95967.72;1997903;29;20042;-62
2022/06/05 03:00:15;;;;;;;21.65;17.67;;;;;;;15.07;90.50;95965.94;2005050;29;20049;-66
2022/06/05 03:04:48;;;;;;;20.70;16.13;;;;;;;15.04;91.04;95963.53;2013001;29;20379;-62
2022/06/05 03:06:07;;;;;;;20.00;16.70;;;;;;;15.06;90.88;95953.00;2002720;29;20046;-61
2022/06/05 03:07:27;;;;;;;21.52;17.73;;;;;;;15.07;91.04;95955.50;2005054;29;20454;-62
2022/06/05 03:08:47;;;;;;;22.52;17.20;;;;;;;15.09;91.14;95955.41;1997680;29;20061;-64
2022/06/05 03:10:06;;;;;;;18.15;15.55;;;;;;;15.13;90.64;95956.84;1997632;29;20051;-61
2022/06/05 03:11:29;;;;;;;20.65;15.90;;;;;;;15.14;90.88;95958.56;1995136;29;20038;-61
2022/06/05 03:12:49;;;;;;;19.50;15.88;;;;;;;15.16;90.92;95957.50;2002173;29;20050;-65
2022/06/05 03:14:09;;;;;;;20.02;16.08;;;;;;;15.19;90.87;95951.25;2002717;29;20041;-63
2022/06/05 03:15:29;;;;;;;18.05;15.38;;;;;;;15.21;90.25;95947.59;2002456;29;20586;-62
2022/06/05 03:16:49;;;;;;;17.40;15.43;;;;;;;15.21;90.25;95952.81;2009863;29;20038;-63
2022/06/05 03:18:12;;;;;;;18.73;15.63;;;;;;;15.23;90.44;95952.69;2004753;29;20053;-62
2022/06/05 03:19:32;;;;;;;17.25;14.45;;;;;;;15.26;90.61;95951.66;2002776;29;20051;-61
2022/06/05 03:20:56;;;;;;;18.85;15.15;;;;;;;15.26;nan;95947.25;2002616;29;20046;-64
2022/06/05 03:22:16;;;;;;;20.50;15.27;;;;;;;15.27;nan;95942.91;1997460;29;20429;-63
2022/06/05 03:23:35;;;;;;;17.73;15.45;;;;;;;15.29;89.79;95946.22;2004617;29;20061;-64
2022/06/05 03:24:55;;;;;;;18.42;14.52;;;;;;;15.31;90.01;95944.34;2002603;29;20038;-62
2022/06/05 03:26:14;;;;;;;18.08;15.13;;;;;;;15.30;90.22;95943.50;1993628;29;20535;-62
2022/06/05 03:27:34;;;;;;;19.70;16.20;;;;;;;15.32;89.76;95943.44;2001297;29;20053;-63
2022/06/05 03:28:53;;;;;;;19.85;15.07;;;;;;;15.32;89.74;95939.03;2001775;29;20053;-63
2022/06/05 03:30:13;;;;;;;17.52;15.30;;;;;;;15.34;89.62;95946.75;1997796;29;20537;-61
2022/06/05 03:31:34;;;;;;;17.08;15.27;;;;;;;15.33;89.24;95940.69;1996590;29;20433;-62
2022/06/05 03:32:54;;;;;;;18.80;15.30;;;;;;;15.31;89.83;95934.72;1999539;29;20445;-62
2022/06/05 03:34:16;;;;;;;17.95;15.68;;;;;;;15.35;89.68;95928.34;2002222;29;20054;-63
2022/06/05 03:35:39;;;;;;;18.60;15.77;;;;;;;15.32;89.74;95925.13;2002345;29;20045;-62
2022/06/05 03:36:59;;;;;;;17.50;14.70;;;;;;;15.40;89.66;95935.91;2007198;29;20054;-62
2022/06/05 03:38:18;;;;;;;18.70;15.35;;;;;;;15.42;89.12;95926.13;2004922;29;20057;-62
2022/06/05 03:39:37;;;;;;;17.42;14.57;;;;;;;15.43;89.24;95928.66;2001910;29;20054;-62
2022/06/05 03:40:57;;;;;;;17.75;14.93;;;;;;;15.38;89.71;95925.53;2007242;29;20049;-60
2022/06/05 03:42:17;;;;;;;18.02;15.18;;;;;;;15.44;89.04;95929.50;2010386;29;20050;-62
2022/06/05 03:43:37;;;;;;;19.52;15.63;;;;;;;15.50;89.59;95920.41;1994937;29;20038;-62
2022/06/05 03:44:57;;;;;;;17.80;14.82;;;;;;;15.52;89.20;95915.91;1999626;29;20042;-63
2022/06/05 03:46:17;;;;;;;20.05;14.57;;;;;;;15.54;88.88;95921.88;2009836;29;20525;-63
2022/06/05 03:47:36;;;;;;;16.52;14.73;;;;;;;15.56;89.23;95914.75;2014338;29;20524;-65
2022/06/05 03:48:56;;;;;;;18.42;14.55;;;;;;;15.55;88.86;95916.53;1997081;29;20038;-61
2022/06/05 03:50:15;;;;;;;15.88;13.27;;;;;;;15.64;88.98;95918.53;2003958;29;20053;-61
2022/06/05 03:51:35;;;;;;;17.05;14.38;;;;;;;15.64;88.65;95915.06;2017304;29;20053;-63
2022/06/05 03:52:55;;;;;;;16.75;13.40;;;;;;;15.65;88.04;95912.34;2011871;29;20046;-60
2022/06/05 03:54:14;;;;;;;15.25;12.85;;;;;;;15.66;88.54;95903.56;2017102;29;20044;-61
2022/06/05 03:55:34;;;;;;;15.93;14.13;;;;;;;15.69;88.53;95907.78;2004901;29;20054;-61
2022/06/05 03:56:53;;;;;;;14.68;12.85;;;;;;;15.68;88.14;95905.22;2014233;29;20053;-61
2022/06/05 03:58:13;;;;;;;14.88;13.02;;;;;;;15.69;88.04;95906.91;2009668;29;20045;-62
2022/06/05 03:59:34;;;;;;;16.70;13.90;;;;;;;15.69;87.54;95910.41;2007013;29;20378;-60
2022/06/05 04:00:54;;;;;;;16.13;13.55;;;;;;;15.73;88.50;95900.53;2007425;29;20049;-62
2022/06/05 04:02:14;;;;;;;16.60;13.55;;;;;;;15.75;88.36;95896.88;2011015;29;20045;-62
2022/06/05 04:03:33;;;;;;;19.13;13.35;;;;;;;15.78;87.44;95898.44;2006949;29;20045;-64
2022/06/05 04:04:53;;;;;;;18.45;13.27;;;;;;;15.81;87.53;95900.84;2014548;29;20041;-60
2022/06/05 04:06:13;;;;;;;18.67;13.88;;;;;;;15.85;87.12;95902.28;2017584;29;20049;-62
2022/06/05 04:07:33;;;;;;;15.55;13.43;;;;;;;15.86;87.36;95904.81;2012291;29;20046;-59
2022/06/05 04:08:52;;;;;;;16.33;13.30;;;;;;;15.85;87.28;95915.38;2006569;29;20552;-62
2022/06/05 04:10:13;;;;;;;17.38;12.68;;;;;;;15.90;87.33;95908.03;2009830;29;20049;-64
2022/06/05 04:11:34;;;;;;;14.98;13.25;;;;;;;15.97;86.77;95916.31;2015172;29;20049;-59
2022/06/05 04:12:53;;;;;;;17.75;12.93;;;;;;;16.00;86.61;95906.47;2017975;29;20404;-61
2022/06/05 04:14:13;;;;;;;16.00;12.73;;;;;;;15.99;86.32;95907.41;2004801;29;20050;-62
2022/06/05 04:15:39;;;;;;;15.43;11.93;;;;;;;16.07;86.44;95904.25;2014116;29;20049;-61
2022/06/05 04:16:59;;;;;;;15.07;12.73;;;;;;;16.15;86.13;95907.19;2009571;29;20517;-63
2022/06/05 04:18:18;;;;;;;15.15;12.23;;;;;;;16.17;85.46;95897.44;2006767;29;20437;-62
2022/06/05 04:19:38;;;;;;;14.98;13.07;;;;;;;16.26;85.31;95890.69;2009456;29;20050;-64
2022/06/05 04:20:58;;;;;;;14.55;12.13;;;;;;;16.34;86.10;95898.84;2008883;29;20045;-65
2022/06/05 04:22:17;;;;;;;15.10;12.57;;;;;;;16.29;85.12;95900.94;1994542;29;20484;-61
2022/06/05 04:23:37;;;;;;;13.82;12.38;;;;;;;16.29;85.37;95900.94;1984094;29;20043;-62
2022/06/05 04:24:59;;;;;;;13.48;12.10;;;;;;;16.35;84.79;95899.66;2001303;29;20049;-59
2022/06/05 04:26:21;;;;;;;14.32;11.60;;;;;;;16.45;84.92;95904.13;1994745;29;20042;-62
2022/06/05 04:27:41;;;;;;;15.25;12.10;;;;;;;16.53;84.47;95907.03;2005184;29;20041;-64
2022/06/05 04:29:01;;;;;;;15.75;11.57;;;;;;;16.46;84.57;95908.41;1997076;29;20510;-61
2022/06/05 04:30:21;;;;;;;13.68;11.60;;;;;;;16.45;84.03;95893.66;2003902;29;20049;-62
2022/06/05 04:31:45;;;;;;;12.50;11.20;;;;;;;16.48;83.99;95890.81;1996983;29;20050;-61
2022/06/05 04:33:05;;;;;;;12.73;10.68;;;;;;;16.56;84.14;95892.88;1998855;29;20049;-61
2022/06/05 04:34:24;;;;;;;13.63;11.27;;;;;;;16.66;83.88;95887.81;2008921;29;20501;-61
2022/06/05 04:35:44;;;;;;;14.55;10.95;;;;;;;16.71;83.58;95886.53;1996827;29;20714;-60
2022/06/05 04:37:04;;;;;;;12.93;10.90;;;;;;;16.82;83.57;95887.56;1998718;29;20041;-60
2022/06/05 04:38:24;;;;;;;16.02;11.05;;;;;;;16.84;83.24;95885.63;2006654;29;20487;-61
2022/06/05 04:39:44;;;;;;;12.27;11.02;;;;;;;16.88;82.54;95880.06;2010024;29;20417;-63
2022/06/05 04:41:03;;;;;;;12.48;10.75;;;;;;;16.95;82.75;95878.66;2010131;29;20046;-62
2022/06/05 04:42:23;;;;;;;12.93;10.45;;;;;;;17.00;82.41;95886.19;2001853;29;20049;-63
2022/06/05 04:43:43;;;;;;;14.95;10.52;;;;;;;16.99;82.39;95884.50;1991528;29;20046;-64
2022/06/05 04:45:03;;;;;;;12.93;10.85;;;;;;;17.01;81.62;95887.03;2001757;29;20046;-64
2022/06/05 04:46:24;;;;;;;11.95;10.73;;;;;;;17.08;81.39;95890.84;1998948;29;20541;-63
2022/06/05 04:47:44;;;;;;;13.73;10.88;;;;;;;17.01;81.61;95892.28;2004083;29;20533;-64
2022/06/05 04:49:06;;;;;;;12.32;10.40;;;;;;;17.00;81.98;95885.34;2009279;29;20057;-63
2022/06/05 04:50:26;;;;;;;11.70;10.43;;;;;;;17.13;82.00;95891.34;2009462;29;20045;-63
2022/06/05 04:51:46;;;;;;;13.05;9.98;;;;;;;17.25;81.67;95879.94;2012126;29;20049;-64
2022/06/05 04:53:05;;;;;;;15.60;10.13;;;;;;;17.18;81.25;95886.59;2018600;29;20044;-66
2022/06/05 04:54:25;;;;;;;15.20;9.85;;;;;;;17.19;81.16;95876.00;2001950;29;20045;-66
2022/06/05 04:55:45;;;;;;;11.98;10.02;;;;;;;17.25;81.05;95874.69;2006753;29;20045;-63
2022/06/05 04:57:05;;;;;;;13.95;10.15;;;;;;;17.32;79.82;95875.91;2014338;29;20048;-64
2022/06/05 04:58:25;;;;;;;10.30;9.20;;;;;;;17.28;80.08;95871.00;2017351;29;20404;-63
2022/06/05 04:59:44;;;;;;;12.65;9.82;;;;;;;17.32;80.31;95872.41;2012123;29;20049;-62
2022/06/05 05:01:28;;;;;;;12.43;9.02;;;;;;;17.28;80.15;95869.19;2006345;29;20056;-65
2022/06/05 05:02:48;;;;;;;11.90;9.68;;;;;;;17.31;79.90;95868.97;2016855;29;20041;-64
2022/06/05 05:04:09;;;;;;;11.57;9.35;;;;;;;17.35;80.13;95865.16;2009653;29;20681;-67
2022/06/05 05:05:29;;;;;;;10.52;9.20;;;;;;;17.25;81.01;95869.44;2017093;29;20053;-64
2022/06/05 05:06:49;;;;;;;12.40;9.45;;;;;;;17.24;80.17;95867.78;2017465;29;20044;-65
2022/06/05 05:08:08;;;;;;;11.20;9.25;;;;;;;17.24;80.03;95869.53;2011664;29;20045;-64
2022/06/05 05:09:28;;;;;;;11.50;9.02;;;;;;;17.15;80.39;95865.84;2014575;29;20041;-64
2022/06/05 05:10:47;;;;;;;11.38;8.88;;;;;;;17.20;80.00;95861.06;2001810;29;20054;-64
2022/06/05 05:12:08;;;;;;;10.45;8.13;;;;;;;17.16;79.80;95862.25;2006528;29;20037;-65
2022/06/05 05:13:28;;;;;;;10.52;8.13;;;;;;;17.14;80.03;95866.78;2014040;29;20445;-63
2022/06/05 05:14:47;;;;;;;14.30;9.70;;;;;;;17.13;80.38;95859.84;2009559;29;20437;-64
2022/06/05 05:16:07;;;;;;;10.95;8.70;;;;;;;17.14;79.82;95858.94;2009427;29;20053;-65
2022/06/05 05:17:27;;;;;;;12.05;8.80;;;;;;;17.16;79.96;95850.00;2009022;29;20045;-64
2022/06/05 05:18:46;;;;;;;11.00;8.45;;;;;;;17.18;79.99;95847.22;2006419;29;20045;-67
2022/06/05 05:20:06;;;;;;;10.23;8.25;;;;;;;17.12;80.51;95838.03;2012090;29;20042;-64
2022/06/05 05:21:26;;;;;;;10.73;8.90;;;;;;;17.28;79.71;95842.13;2007022;29;20605;-64
2022/06/05 05:22:46;;;;;;;14.90;9.32;;;;;;;17.24;80.02;95835.44;2011771;29;20057;-64
2022/06/05 05:24:07;;;;;;;9.70;8.70;;;;;;;17.19;79.78;95836.63;2007225;29;20054;-66
2022/06/05 05:25:27;;;;;;;13.23;8.65;;;;;;;17.25;80.64;95835.31;2012248;29;20042;-64
2022/06/05 05:26:47;;;;;;;11.57;9.10;;;;;;;17.33;80.12;95822.44;2014473;29;20049;-66
2022/06/05 05:28:06;;;;;;;9.13;8.13;;;;;;;17.42;78.93;95829.59;2003859;29;20042;-63
2022/06/05 05:29:26;;;;;;;11.75;7.93;;;;;;;17.53;79.91;95827.94;2011179;29;20536;-65
2022/06/05 05:30:46;;;;;;;11.35;8.18;;;;;;;17.51;79.00;95824.59;2004427;29;20045;-63
2022/06/05 05:32:06;;;;;;;9.38;7.88;;;;;;;17.57;79.15;95824.13;2011209;29;20045;-63
2022/06/05 05:33:26;;;;;;;13.05;7.95;;;;;;;17.58;78.28;95821.38;2002492;29;20433;-63
2022/06/05 05:34:46;;;;;;;14.32;8.38;;;;;;;17.74;78.56;95821.00;1994055;29;20050;-62
2022/06/05 05:36:06;;;;;;;9.02;8.00;;;;;;;17.80;77.91;95819.72;2008974;29;20509;-65
2022/06/05 05:37:26;;;;;;;8.85;7.63;;;;;;;17.89;77.48;95819.00;2014494;29;20044;-63
2022/06/05 05:43:24;;;;;;;12.35;7.43;;;;;;;18.15;76.05;95808.19;2017726;29;20053;-63
2022/06/05 05:44:45;;;;;;;8.02;7.22;;;;;;;18.15;75.98;95800.31;2011925;29;20038;-64
2022/06/05 05:46:08;;;;;;;7.22;6.53;;;;;;;18.29;75.99;95807.94;2014558;29;20048;-65
2022/06/05 05:47:30;;;;;;;10.27;7.53;;;;;;;18.36;75.63;95800.38;2000004;29;20042;-65
2022/06/05 05:48:49;;;;;;;10.02;6.90;;;;;;;18.36;75.22;95803.00;2005219;29;20054;-63
2022/06/05 05:50:11;;;;;;;11.52;6.78;;;;;;;18.33;75.64;95798.81;2003343;29;20038;-63
2022/06/05 05:51:31;;;;;;;8.63;6.68;;;;;;;18.28;75.40;95808.88;2010825;29;20440;-61
2022/06/05 05:52:50;;;;;;;12.48;7.10;;;;;;;18.44;75.41;95806.69;2012918;29;20054;-63
2022/06/05 05:54:10;;;;;;;9.38;7.15;;;;;;;18.35;74.76;95806.59;2011205;29;20049;-65
2022/06/05 05:55:30;;;;;;;9.30;7.30;;;;;;;18.48;74.92;95810.72;2003302;29;20046;-62
2022/06/05 05:56:51;;;;;;;8.85;7.30;;;;;;;18.43;75.22;95812.06;1992651;29;20054;-62
2022/06/05 05:58:11;;;;;;;11.35;7.68;;;;;;;18.52;74.97;95813.94;2005611;29;20045;-63
2022/06/05 05:59:30;;;;;;;8.95;7.07;;;;;;;18.61;74.67;95818.47;2003151;29;20046;-62
2022/06/05 06:01:00;;;;;;;7.63;6.70;;;;;;;18.70;74.39;95819.50;2002797;29;20049;-62
2022/06/05 06:02:21;;;;;;;9.05;6.75;;;;;;;18.55;75.16;95824.22;2009247;29;20037;-59
2022/06/05 06:03:41;;;;;;;8.98;6.97;;;;;;;18.65;75.22;95813.78;1995568;29;20553;-62
2022/06/05 06:05:00;;;;;;;7.65;6.30;;;;;;;18.67;74.62;95819.75;2002677;29;20053;-64
2022/06/05 06:06:26;;;;;;;8.80;6.57;;;;;;;18.50;74.22;95815.88;2002904;29;20049;-63
2022/06/05 06:07:46;;;;;;;9.52;7.10;;;;;;;18.41;75.01;95816.63;2008795;29;20053;-62
2022/06/05 06:09:05;;;;;;;12.13;7.80;;;;;;;18.43;74.92;95820.78;2003058;29;20053;-63
2022/06/05 06:10:25;;;;;;;7.47;6.75;;;;;;;18.48;74.82;95820.41;2007806;29;20045;-61
2022/06/05 06:11:44;;;;;;;8.35;6.88;;;;;;;18.67;74.07;95817.94;2005665;29;20046;-62
2022/06/05 06:13:04;;;;;;;7.93;6.65;;;;;;;18.68;75.05;95826.66;1999848;29;20046;-62
2022/06/05 06:14:24;;;;;;;9.85;6.60;;;;;;;18.63;74.15;95824.44;2001051;29;20046;-61
2022/06/05 06:15:44;;;;;;;8.52;7.25;;;;;;;18.69;73.92;95826.56;2004882;29;20433;-61
2022/06/05 06:17:03;;;;;;;8.75;6.85;;;;;;;18.67;73.94;95827.63;2011154;29;20049;-62
2022/06/05 06:18:23;;;;;;;9.07;6.78;;;;;;;18.70;74.63;95828.22;2010155;29;20042;-63
2022/06/05 06:19:43;;;;;;;9.32;7.10;;;;;;;18.77;74.20;95830.38;2011028;29;20037;-62
2022/06/05 06:21:02;;;;;;;9.10;6.60;;;;;;;18.82;73.88;95831.69;2010692;29;20049;-62
2022/06/05 06:22:21;;;;;;;7.40;6.15;;;;;;;18.93;74.07;95833.41;2003113;29;20053;-63
2022/06/05 06:23:41;;;;;;;8.65;7.00;;;;;;;18.98;73.19;95828.59;2002915;29;20053;-63
2022/06/05 06:25:03;;;;;;;9.93;6.38;;;;;;;18.97;73.10;95832.19;2010420;29;20045;-60
2022/06/05 06:26:23;;;;;;;13.00;7.10;;;;;;;18.89;73.22;95834.63;2010937;29;20137;-62
2022/06/05 06:27:43;;;;;;;13.05;7.25;;;;;;;18.84;72.76;95845.50;2003002;29;20042;-63
2022/06/05 06:29:03;;;;;;;9.57;6.95;;;;;;;18.87;72.90;95849.69;2007873;29;20053;-61
2022/06/05 06:30:22;;;;;;;7.75;5.88;;;;;;;18.94;73.75;95851.69;2005515;29;20438;-62
2022/06/05 06:31:42;;;;;;;7.22;6.07;;;;;;;18.93;73.49;95851.84;2007999;29;20453;-62
2022/06/05 06:33:02;;;;;;;7.82;6.28;;;;;;;18.78;73.41;95861.81;2004700;29;20669;-61